createdAt,value
2022-11-07T00:00:20.399Z,7.80
2022-11-07T00:01:54.121Z,7.70
2022-11-07T00:03:27.286Z,7.70
2022-11-07T00:05:00.497Z,7.60
2022-11-07T00:06:33.553Z,7.60
2022-11-07T00:08:07.053Z,7.60
2022-11-07T00:09:40.087Z,7.50
2022-11-07T00:11:13.346Z,7.60
2022-11-07T00:12:46.373Z,7.60
2022-11-07T00:14:19.055Z,7.60
2022-11-07T00:15:52.093Z,7.60
2022-11-07T00:17:26.506Z,7.50
2022-11-07T00:18:59.562Z,7.50
2022-11-07T00:20:33.581Z,7.50
2022-11-07T00:22:05.657Z,7.40
2022-11-07T00:23:42.732Z,7.40
2022-11-07T00:25:15.818Z,7.40
2022-11-07T00:26:48.369Z,7.40
2022-11-07T00:28:21.471Z,7.50
2022-11-07T00:29:54.581Z,7.50
2022-11-07T00:31:27.787Z,7.50
2022-11-07T00:33:02.857Z,7.60
2022-11-07T00:34:36.230Z,7.60
2022-11-07T00:36:11.044Z,7.60
2022-11-07T00:37:44.076Z,7.60
2022-11-07T00:39:16.339Z,7.60
2022-11-07T00:40:55.640Z,7.60
2022-11-07T00:42:28.741Z,7.70
2022-11-07T00:44:01.838Z,7.80
2022-11-07T00:45:34.880Z,8.00
2022-11-07T00:47:07.967Z,8.00
2022-11-07T00:48:42.703Z,8.10
2022-11-07T00:50:15.779Z,8.10
2022-11-07T00:51:48.831Z,8.10
2022-11-07T00:53:20.896Z,8.10
2022-11-07T00:54:53.959Z,8.10
2022-11-07T00:56:27.057Z,8.10
2022-11-07T00:57:59.248Z,8.10
2022-11-07T00:59:32.281Z,8.00
2022-11-07T01:01:08.336Z,8.00
2022-11-07T01:02:41.476Z,8.00
2022-11-07T01:04:33.602Z,8.00
2022-11-07T01:06:06.124Z,8.00
2022-11-07T01:07:39.720Z,8.00
2022-11-07T01:09:14.741Z,8.00
2022-11-07T01:10:47.788Z,8.00
2022-11-07T01:12:20.809Z,8.00
2022-11-07T01:13:55.737Z,8.00
2022-11-07T01:15:28.769Z,8.00
2022-11-07T01:17:01.998Z,8.00
2022-11-07T01:18:35.030Z,8.00
2022-11-07T01:20:11.212Z,7.90
2022-11-07T01:21:44.729Z,7.90
2022-11-07T01:23:17.419Z,7.90
2022-11-07T01:24:50.932Z,7.90
2022-11-07T01:26:24.027Z,7.90
2022-11-07T01:27:57.051Z,7.80
2022-11-07T01:29:30.078Z,7.80
2022-11-07T01:31:05.296Z,7.80
2022-11-07T01:32:38.309Z,7.80
2022-11-07T01:34:11.672Z,7.80
2022-11-07T01:35:45.078Z,7.80
2022-11-07T01:37:18.263Z,7.70
2022-11-07T01:38:51.405Z,7.70
2022-11-07T01:40:24.464Z,7.70
2022-11-07T01:41:56.527Z,7.70
2022-11-07T01:43:44.021Z,7.70
2022-11-07T01:45:21.950Z,7.70
2022-11-07T01:46:58.373Z,7.70
2022-11-07T01:48:31.395Z,7.70
2022-11-07T01:50:06.721Z,7.70
2022-11-07T01:51:47.512Z,7.70
2022-11-07T01:53:20.610Z,7.80
2022-11-07T01:55:06.040Z,7.70
2022-11-07T01:56:42.311Z,7.70
2022-11-07T01:58:15.411Z,7.80
2022-11-07T01:59:49.315Z,7.80
2022-11-07T02:01:22.573Z,7.80
2022-11-07T02:03:00.367Z,7.80
2022-11-07T02:04:33.584Z,7.80
2022-11-07T02:06:09.946Z,7.80
2022-11-07T02:07:44.759Z,7.90
2022-11-07T02:09:17.827Z,7.90
2022-11-07T02:10:51.884Z,7.90
2022-11-07T02:12:26.933Z,7.90
2022-11-07T02:13:59.981Z,7.90
2022-11-07T02:15:34.131Z,7.80
2022-11-07T02:17:07.166Z,7.80
2022-11-07T02:18:41.512Z,7.70
2022-11-07T02:20:14.876Z,7.60
2022-11-07T02:21:54.894Z,7.60
2022-11-07T02:23:40.505Z,7.60
2022-11-07T02:25:17.317Z,7.60
2022-11-07T02:26:50.626Z,7.50
2022-11-07T02:28:27.854Z,7.40
2022-11-07T02:30:03.842Z,7.40
2022-11-07T02:31:36.978Z,7.30
2022-11-07T02:33:18.663Z,7.30
2022-11-07T02:34:57.418Z,7.30
2022-11-07T02:36:30.614Z,7.30
2022-11-07T02:38:04.244Z,7.20
2022-11-07T02:39:37.566Z,7.10
2022-11-07T02:41:17.224Z,7.10
2022-11-07T02:42:50.470Z,7.00
2022-11-07T02:44:23.627Z,7.00
2022-11-07T02:45:59.072Z,6.90
2022-11-07T02:47:32.116Z,6.90
2022-11-07T02:49:05.186Z,6.80
2022-11-07T02:50:39.951Z,6.70
2022-11-07T02:52:13.063Z,6.60
2022-11-07T02:53:46.426Z,6.60
2022-11-07T02:55:19.510Z,6.60
2022-11-07T02:56:54.145Z,6.50
2022-11-07T02:58:27.240Z,6.50
2022-11-07T03:00:00.443Z,6.60
2022-11-07T03:01:33.824Z,6.60
2022-11-07T03:03:07.166Z,6.60
2022-11-07T03:04:42.048Z,6.70
2022-11-07T03:06:21.019Z,6.60
2022-11-07T03:07:54.397Z,6.60
2022-11-07T03:09:26.415Z,6.40
2022-11-07T03:10:59.758Z,6.20
2022-11-07T03:12:33.177Z,6.10
2022-11-07T03:14:06.230Z,6.00
2022-11-07T03:15:45.336Z,5.90
2022-11-07T03:17:18.377Z,5.70
2022-11-07T03:18:51.476Z,5.50
2022-11-07T03:20:23.555Z,5.40
2022-11-07T03:21:56.717Z,5.40
2022-11-07T03:23:29.890Z,5.20
2022-11-07T03:25:03.025Z,5.00
2022-11-07T03:26:36.098Z,4.90
2022-11-07T03:28:10.534Z,5.00
2022-11-07T03:29:43.586Z,4.90
2022-11-07T03:31:16.653Z,4.90
2022-11-07T03:32:52.359Z,4.80
2022-11-07T03:34:25.448Z,4.90
2022-11-07T03:35:58.679Z,5.00
2022-11-07T03:37:31.775Z,5.00
2022-11-07T03:39:04.972Z,5.00
2022-11-07T03:40:38.173Z,4.80
2022-11-07T03:42:11.231Z,4.80
2022-11-07T03:43:46.178Z,4.60
2022-11-07T03:45:19.438Z,4.50
2022-11-07T03:46:52.486Z,4.40
2022-11-07T03:48:25.618Z,4.40
2022-11-07T03:49:57.669Z,4.40
2022-11-07T03:51:30.894Z,4.60
2022-11-07T03:53:03.920Z,4.80
2022-11-07T03:54:36.054Z,4.90
2022-11-07T03:56:11.001Z,5.00
2022-11-07T03:57:44.405Z,5.00
2022-11-07T03:59:18.816Z,5.10
2022-11-07T04:00:52.179Z,5.10
2022-11-07T04:02:24.337Z,5.00
2022-11-07T04:03:57.419Z,4.90
2022-11-07T04:05:30.530Z,4.90
2022-11-07T04:07:03.617Z,5.00
2022-11-07T04:08:37.019Z,5.00
2022-11-07T04:10:10.262Z,5.10
2022-11-07T04:12:00.815Z,5.20
2022-11-07T04:13:51.492Z,5.20
2022-11-07T04:15:43.906Z,5.20
2022-11-07T04:17:19.685Z,5.30
2022-11-07T04:18:52.758Z,5.20
2022-11-07T04:20:25.808Z,5.30
2022-11-07T04:21:57.886Z,5.30
2022-11-07T04:23:30.930Z,5.40
2022-11-07T04:25:03.407Z,5.50
2022-11-07T04:26:53.778Z,5.60
2022-11-07T04:28:26.871Z,5.60
2022-11-07T04:29:59.948Z,5.60
2022-11-07T04:31:34.356Z,5.60
2022-11-07T04:33:07.442Z,5.60
2022-11-07T04:34:40.450Z,5.60
2022-11-07T04:36:13.726Z,5.50
2022-11-07T04:37:47.641Z,5.60
2022-11-07T04:39:20.722Z,5.60
2022-11-07T04:40:55.434Z,5.70
2022-11-07T04:42:27.463Z,5.60
2022-11-07T04:44:00.546Z,5.60
2022-11-07T04:45:33.574Z,5.60
2022-11-07T04:47:08.052Z,5.60
2022-11-07T04:48:41.097Z,5.60
2022-11-07T04:50:16.119Z,5.60
2022-11-07T04:51:50.125Z,5.60
2022-11-07T04:53:23.209Z,5.70
2022-11-07T04:54:55.293Z,5.70
2022-11-07T04:56:31.862Z,5.70
2022-11-07T04:58:07.297Z,5.70
2022-11-07T04:59:39.399Z,5.70
2022-11-07T05:01:12.466Z,5.60
2022-11-07T05:02:46.985Z,5.50
2022-11-07T05:04:20.044Z,5.50
2022-11-07T05:05:53.146Z,5.50
2022-11-07T05:07:26.162Z,5.40
2022-11-07T05:08:59.270Z,5.50
2022-11-07T05:10:31.441Z,5.50
2022-11-07T05:12:04.810Z,5.40
2022-11-07T05:13:37.851Z,5.40
2022-11-07T05:15:11.226Z,5.40
2022-11-07T05:16:45.120Z,5.40
2022-11-07T05:18:21.166Z,5.50
2022-11-07T05:19:53.229Z,5.60
2022-11-07T05:21:26.344Z,5.70
2022-11-07T05:23:15.928Z,5.80
2022-11-07T05:24:49.302Z,5.80
2022-11-07T05:26:22.543Z,5.90
2022-11-07T05:27:56.654Z,6.00
2022-11-07T05:29:29.726Z,6.10
2022-11-07T05:31:04.879Z,6.10
2022-11-07T05:32:38.268Z,6.10
2022-11-07T05:34:14.684Z,6.10
2022-11-07T05:35:48.330Z,6.00
2022-11-07T05:37:21.413Z,6.10
2022-11-07T05:38:54.921Z,6.10
2022-11-07T05:40:27.989Z,6.10
2022-11-07T05:42:01.480Z,6.00
2022-11-07T05:43:34.614Z,5.90
2022-11-07T05:45:09.351Z,5.90
2022-11-07T05:46:42.387Z,5.80
2022-11-07T05:48:15.655Z,5.80
2022-11-07T05:49:50.080Z,5.70
2022-11-07T05:51:23.147Z,5.60
2022-11-07T05:52:57.081Z,5.60
2022-11-07T05:54:30.402Z,5.60
2022-11-07T05:56:03.567Z,5.60
2022-11-07T05:57:36.651Z,5.50
2022-11-07T05:59:10.731Z,5.40
2022-11-07T06:00:43.810Z,5.40
2022-11-07T06:02:16.959Z,5.50
2022-11-07T06:03:50.108Z,5.50
2022-11-07T06:05:24.705Z,5.60
2022-11-07T06:06:57.784Z,5.50
2022-11-07T06:08:30.856Z,5.40
2022-11-07T06:10:04.027Z,5.40
2022-11-07T06:11:37.147Z,5.30
2022-11-07T06:13:13.836Z,5.40
2022-11-07T06:14:47.543Z,5.40
2022-11-07T06:16:20.618Z,5.30
2022-11-07T06:17:52.776Z,5.30
2022-11-07T06:19:25.874Z,5.20
2022-11-07T06:21:02.936Z,5.10
2022-11-07T06:22:35.984Z,5.10
2022-11-07T06:24:15.125Z,5.00
2022-11-07T06:25:49.177Z,5.00
2022-11-07T06:27:22.280Z,5.00
2022-11-07T06:28:55.490Z,5.00
2022-11-07T06:30:27.860Z,5.00
2022-11-07T06:32:01.004Z,5.00
2022-11-07T06:33:34.504Z,5.00
2022-11-07T06:35:08.268Z,5.00
2022-11-07T06:36:42.701Z,5.10
2022-11-07T06:38:16.393Z,5.20
2022-11-07T06:39:49.420Z,5.40
2022-11-07T06:41:22.514Z,5.40
2022-11-07T06:42:55.642Z,5.40
2022-11-07T06:44:28.753Z,5.40
2022-11-07T06:46:04.422Z,5.70
2022-11-07T06:47:37.496Z,6.20
2022-11-07T06:49:11.400Z,6.80
2022-11-07T06:50:44.469Z,7.40
2022-11-07T06:52:19.004Z,7.60
2022-11-07T06:53:52.090Z,7.90
2022-11-07T06:55:25.138Z,8.40
2022-11-07T06:56:58.244Z,9.00
2022-11-07T06:58:31.452Z,9.40
2022-11-07T07:00:06.107Z,9.50
2022-11-07T07:01:39.777Z,9.90
2022-11-07T07:03:13.694Z,10.40
2022-11-07T07:04:48.990Z,10.80
2022-11-07T07:06:22.077Z,11.00
2022-11-07T07:07:57.279Z,11.00
2022-11-07T07:09:30.423Z,10.90
2022-11-07T07:11:04.839Z,11.00
2022-11-07T07:12:37.960Z,11.20
2022-11-07T07:14:11.887Z,11.20
2022-11-07T07:15:52.933Z,11.10
2022-11-07T07:17:26.039Z,11.10
2022-11-07T07:18:59.418Z,11.10
2022-11-07T07:20:32.731Z,11.20
2022-11-07T07:22:05.823Z,11.60
2022-11-07T07:23:41.098Z,11.70
2022-11-07T07:25:14.194Z,11.50
2022-11-07T07:26:47.246Z,11.60
2022-11-07T07:28:20.286Z,11.70
2022-11-07T07:29:53.543Z,11.80
2022-11-07T07:31:30.751Z,12.00
2022-11-07T07:33:03.839Z,11.90
2022-11-07T07:34:36.890Z,11.70
2022-11-07T07:36:10.654Z,11.40
2022-11-07T07:37:43.800Z,11.30
2022-11-07T07:39:18.208Z,11.30
2022-11-07T07:40:51.256Z,11.20
2022-11-07T07:42:24.359Z,11.00
2022-11-07T07:43:57.379Z,10.70
2022-11-07T07:45:30.462Z,10.60
2022-11-07T07:47:08.373Z,10.60
2022-11-07T07:48:44.088Z,10.60
2022-11-07T07:50:17.140Z,10.60
2022-11-07T07:51:50.607Z,10.60
2022-11-07T07:53:23.867Z,10.50
2022-11-07T07:54:58.303Z,10.50
2022-11-07T07:56:31.362Z,10.40
2022-11-07T07:58:04.446Z,10.30
2022-11-07T07:59:37.528Z,10.30
2022-11-07T08:01:11.476Z,10.20
2022-11-07T08:02:44.596Z,10.30
2022-11-07T08:04:17.645Z,10.60
2022-11-07T08:05:55.036Z,10.90
2022-11-07T08:07:28.073Z,11.30
2022-11-07T08:09:01.127Z,11.60
2022-11-07T08:10:42.012Z,12.10
2022-11-07T08:12:15.736Z,12.60
2022-11-07T08:13:48.791Z,12.80
2022-11-07T08:15:21.956Z,12.90
2022-11-07T08:16:55.037Z,12.90
2022-11-07T08:18:28.164Z,12.80
2022-11-07T08:20:01.214Z,12.90
2022-11-07T08:21:34.287Z,13.30
2022-11-07T08:23:14.903Z,13.70
2022-11-07T08:24:49.650Z,14.10
2022-11-07T08:26:24.130Z,14.50
2022-11-07T08:27:57.303Z,14.50
2022-11-07T08:29:30.473Z,14.60
2022-11-07T08:31:05.835Z,14.80
2022-11-07T08:32:38.885Z,15.00
2022-11-07T08:34:12.015Z,14.90
2022-11-07T08:35:45.158Z,14.70
2022-11-07T08:38:51.652Z,14.50
2022-11-07T08:40:24.741Z,14.90
2022-11-07T08:43:32.899Z,14.90
2022-11-07T08:45:07.063Z,14.20
2022-11-07T08:46:40.138Z,14.40
2022-11-07T08:48:13.408Z,14.60
2022-11-07T08:49:46.488Z,14.50
2022-11-07T08:51:19.608Z,14.10
2022-11-07T08:52:52.671Z,13.50
2022-11-07T08:54:26.516Z,13.00
2022-11-07T08:56:04.001Z,12.40
2022-11-07T08:57:39.596Z,12.20
2022-11-07T08:59:12.666Z,12.40
2022-11-07T09:00:46.297Z,12.80
2022-11-07T09:04:12.558Z,13.20
2022-11-07T09:05:45.658Z,13.60
2022-11-07T09:07:18.764Z,13.90
2022-11-07T09:08:51.919Z,14.20
2022-11-07T09:10:25.316Z,14.50
2022-11-07T09:11:58.429Z,14.80
2022-11-07T09:13:34.037Z,15.00
2022-11-07T09:15:07.991Z,15.00
2022-11-07T09:16:41.109Z,15.10
2022-11-07T09:18:14.281Z,15.30
2022-11-07T09:19:47.363Z,15.60
2022-11-07T09:21:22.685Z,15.70
2022-11-07T09:22:57.760Z,15.80
2022-11-07T09:24:30.848Z,16.00
2022-11-07T09:30:45.507Z,16.10
2022-11-07T09:32:43.164Z,17.30
2022-11-07T09:34:11.694Z,17.70
2022-11-07T09:35:44.834Z,17.70
2022-11-07T09:37:17.894Z,17.60
2022-11-07T09:38:50.961Z,17.80
2022-11-07T09:40:31.708Z,18.20
2022-11-07T09:42:13.935Z,18.30
2022-11-07T09:44:14.239Z,17.90
2022-11-07T09:45:57.795Z,17.70
2022-11-07T09:47:37.560Z,18.00
2022-11-07T09:49:17.588Z,18.30
2022-11-07T09:50:52.617Z,18.60
2022-11-07T09:52:35.764Z,18.90
2022-11-07T09:54:12.377Z,19.00
2022-11-07T09:55:52.601Z,19.20
2022-11-07T09:57:28.140Z,19.30
2022-11-07T09:59:12.807Z,19.50
2022-11-07T10:00:48.685Z,19.20
2022-11-07T10:02:24.935Z,19.30
2022-11-07T10:04:23.691Z,19.60
2022-11-07T10:06:00.178Z,19.80
2022-11-07T10:07:43.246Z,20.10
2022-11-07T10:09:23.491Z,20.70
2022-11-07T10:10:59.328Z,21.20
2022-11-07T10:12:52.077Z,21.70
2022-11-07T10:14:37.433Z,21.90
2022-11-07T10:16:21.582Z,22.20
2022-11-07T10:18:00.406Z,20.80
2022-11-07T10:19:42.747Z,21.10
2022-11-07T10:21:37.507Z,20.70
2022-11-07T10:23:33.753Z,20.70
2022-11-07T10:25:21.364Z,21.60
2022-11-07T10:26:54.785Z,20.60
2022-11-07T10:28:28.351Z,20.50
2022-11-07T10:30:02.516Z,20.70
2022-11-07T10:31:41.251Z,19.70
2022-11-07T10:33:25.328Z,19.50
2022-11-07T10:35:06.737Z,19.30
2022-11-07T10:36:39.965Z,19.60
2022-11-07T10:38:27.879Z,19.60
2022-11-07T10:40:00.956Z,19.80
2022-11-07T10:41:34.370Z,20.00
2022-11-07T10:43:14.457Z,20.20
2022-11-07T10:44:48.548Z,20.70
2022-11-07T10:46:25.535Z,20.50
2022-11-07T10:48:02.644Z,20.70
2022-11-07T10:49:35.730Z,20.40
2022-11-07T10:51:08.896Z,19.90
2022-11-07T10:52:42.896Z,19.60
2022-11-07T10:54:27.167Z,19.90
2022-11-07T10:56:00.501Z,20.40
2022-11-07T10:57:35.327Z,19.70
2022-11-07T10:59:13.740Z,19.30
2022-11-07T11:00:58.997Z,20.10
2022-11-07T11:02:42.288Z,19.70
2022-11-07T11:04:23.504Z,19.40
2022-11-07T11:05:56.688Z,19.20
2022-11-07T11:07:36.191Z,18.10
2022-11-07T11:09:18.867Z,17.20
2022-11-07T11:10:52.063Z,17.30
2022-11-07T11:12:27.205Z,17.40
2022-11-07T11:14:11.711Z,17.40
2022-11-07T11:15:46.568Z,17.80
2022-11-07T11:17:26.554Z,18.10
2022-11-07T11:19:02.192Z,18.50
2022-11-07T11:20:39.233Z,18.10
2022-11-07T11:22:17.360Z,18.60
2022-11-07T11:23:50.997Z,18.50
2022-11-07T11:25:24.827Z,18.80
2022-11-07T11:27:01.284Z,18.40
2022-11-07T11:28:38.710Z,18.80
2022-11-07T11:30:16.492Z,18.90
2022-11-07T11:31:52.893Z,19.50
2022-11-07T11:33:30.907Z,19.30
2022-11-07T11:35:12.356Z,20.00
2022-11-07T11:36:54.984Z,19.40
2022-11-07T11:38:31.309Z,19.50
2022-11-07T11:40:14.158Z,19.70
2022-11-07T11:41:54.319Z,19.80
2022-11-07T11:43:33.654Z,20.10
2022-11-07T11:45:16.697Z,19.00
2022-11-07T11:46:56.416Z,18.70
2022-11-07T11:48:33.990Z,18.60
2022-11-07T11:50:15.517Z,18.60
2022-11-07T11:51:53.765Z,18.20
2022-11-07T11:53:28.456Z,18.20
2022-11-07T11:55:01.611Z,18.60
2022-11-07T11:56:47.767Z,18.50
2022-11-07T11:58:31.487Z,18.10
2022-11-07T12:00:15.386Z,17.60
2022-11-07T12:02:00.596Z,17.20
2022-11-07T12:03:46.833Z,17.00
2022-11-07T12:05:47.075Z,16.70
2022-11-07T12:07:40.232Z,16.10
2022-11-07T12:09:42.604Z,16.00
2022-11-07T12:11:25.004Z,15.70
2022-11-07T12:13:09.424Z,15.50
2022-11-07T12:14:57.988Z,15.70
2022-11-07T12:16:41.231Z,15.70
2022-11-07T12:18:22.478Z,15.30
2022-11-07T12:20:03.937Z,15.40
2022-11-07T12:21:49.297Z,15.30
2022-11-07T12:23:36.601Z,15.40
2022-11-07T12:25:14.406Z,15.40
2022-11-07T12:26:56.385Z,15.50
2022-11-07T12:28:45.421Z,15.50
2022-11-07T12:30:25.585Z,15.60
2022-11-07T12:32:18.225Z,15.60
2022-11-07T12:34:00.139Z,15.20
2022-11-07T12:35:45.317Z,15.20
2022-11-07T12:37:34.048Z,15.10
2022-11-07T12:39:32.589Z,15.20
2022-11-07T12:41:13.339Z,15.20
2022-11-07T12:43:00.133Z,15.10
2022-11-07T12:44:55.844Z,15.10
2022-11-07T12:46:42.315Z,15.00
2022-11-07T12:48:43.253Z,14.80
2022-11-07T12:50:32.685Z,14.80
2022-11-07T12:52:11.955Z,14.90
2022-11-07T12:53:53.209Z,15.00
2022-11-07T12:55:34.307Z,15.00
2022-11-07T12:57:16.086Z,15.10
2022-11-07T12:58:55.795Z,15.10
2022-11-07T13:00:30.683Z,15.00
2022-11-07T13:02:14.308Z,15.20
2022-11-07T13:03:58.440Z,15.00
2022-11-07T13:05:42.402Z,15.20
2022-11-07T13:07:21.405Z,15.20
2022-11-07T13:09:02.989Z,15.10
2022-11-07T13:10:48.488Z,15.10
2022-11-07T13:12:29.331Z,15.00
2022-11-07T13:14:23.773Z,15.10
2022-11-07T13:16:15.467Z,15.00
2022-11-07T13:17:49.230Z,15.20
2022-11-07T13:19:32.708Z,15.30
2022-11-07T13:21:07.627Z,15.30
2022-11-07T13:22:41.828Z,15.10
2022-11-07T13:24:22.616Z,15.00
2022-11-07T13:26:07.003Z,15.00
2022-11-07T13:28:02.593Z,15.10
2022-11-07T13:29:37.886Z,15.20
2022-11-07T13:31:33.294Z,15.30
2022-11-07T13:33:09.139Z,15.40
2022-11-07T13:34:47.856Z,15.60
2022-11-07T13:36:28.104Z,15.70
2022-11-07T13:38:08.523Z,15.90
2022-11-07T13:39:42.230Z,16.00
2022-11-07T13:41:17.955Z,15.90
2022-11-07T13:42:55.485Z,15.80
2022-11-07T13:44:32.577Z,15.70
2022-11-07T13:46:09.016Z,15.90
2022-11-07T13:47:43.784Z,16.10
2022-11-07T13:49:20.683Z,16.10
2022-11-07T13:51:01.465Z,16.30
2022-11-07T13:52:43.136Z,16.30
2022-11-07T13:54:27.132Z,16.30
2022-11-07T13:56:04.440Z,16.30
2022-11-07T13:57:42.508Z,16.40
2022-11-07T13:59:32.568Z,16.50
2022-11-07T14:01:13.230Z,16.50
2022-11-07T14:02:53.265Z,16.90
2022-11-07T14:04:29.464Z,16.60
2022-11-07T14:06:03.764Z,16.10
2022-11-07T14:07:39.091Z,16.00
2022-11-07T14:09:16.696Z,16.00
2022-11-07T14:10:51.466Z,16.20
2022-11-07T14:12:25.020Z,16.30
2022-11-07T14:13:59.494Z,16.50
2022-11-07T14:15:32.684Z,16.50
2022-11-07T14:17:05.839Z,16.40
2022-11-07T14:18:45.073Z,16.20
2022-11-07T14:20:20.537Z,16.40
2022-11-07T14:21:55.133Z,16.30
2022-11-07T14:23:32.320Z,16.10
2022-11-07T14:25:19.760Z,15.90
2022-11-07T14:27:00.990Z,15.80
2022-11-07T14:28:37.287Z,15.60
2022-11-07T14:30:18.141Z,15.60
2022-11-07T14:31:51.573Z,15.70
2022-11-07T14:33:24.893Z,15.70
2022-11-07T14:35:00.839Z,15.70
2022-11-07T14:36:35.341Z,15.70
2022-11-07T14:38:13.560Z,15.60
2022-11-07T14:39:49.555Z,15.40
2022-11-07T14:41:23.821Z,15.20
2022-11-07T14:42:57.006Z,15.20
2022-11-07T14:44:53.741Z,14.90
2022-11-07T14:46:29.766Z,14.80
2022-11-07T14:48:03.023Z,14.60
2022-11-07T14:49:40.852Z,14.60
2022-11-07T14:51:16.424Z,14.50
2022-11-07T14:52:58.054Z,14.40
2022-11-07T14:54:37.698Z,14.40
2022-11-07T14:56:14.329Z,14.30
2022-11-07T14:57:47.686Z,14.20
2022-11-07T14:59:22.829Z,14.10
2022-11-07T15:00:58.729Z,14.00
2022-11-07T15:02:34.861Z,13.80
2022-11-07T15:04:17.775Z,13.80
2022-11-07T15:05:51.193Z,13.60
2022-11-07T15:07:26.386Z,13.40
2022-11-07T15:09:01.555Z,13.40
2022-11-07T15:10:36.735Z,13.40
2022-11-07T15:12:17.201Z,13.40
2022-11-07T15:13:50.276Z,13.30
2022-11-07T15:15:25.135Z,13.30
2022-11-07T15:16:58.494Z,13.20
2022-11-07T15:18:36.690Z,13.10
2022-11-07T15:20:21.856Z,13.00
2022-11-07T15:21:56.458Z,12.90
2022-11-07T15:23:32.290Z,12.90
2022-11-07T15:25:20.808Z,13.00
2022-11-07T15:27:01.280Z,12.90
2022-11-07T15:28:46.452Z,12.90
2022-11-07T15:30:30.190Z,12.80
2022-11-07T15:32:08.456Z,12.70
2022-11-07T15:33:42.859Z,12.60
2022-11-07T15:37:12.724Z,12.50
2022-11-07T15:38:45.918Z,12.60
2022-11-07T15:40:19.238Z,12.60
2022-11-07T15:41:52.415Z,12.50
2022-11-07T15:43:25.483Z,12.50
2022-11-07T15:44:58.547Z,12.50
2022-11-07T15:46:36.275Z,12.50
2022-11-07T15:48:13.144Z,12.40
2022-11-07T15:49:48.203Z,12.30
2022-11-07T15:51:21.266Z,12.10
2022-11-07T15:52:55.221Z,12.10
2022-11-07T15:54:28.868Z,12.10
2022-11-07T15:56:05.042Z,12.00
2022-11-07T15:57:38.124Z,12.00
2022-11-07T15:59:18.480Z,12.00
2022-11-07T16:00:51.783Z,11.90
2022-11-07T16:02:24.932Z,11.90
2022-11-07T16:03:58.124Z,11.90
2022-11-07T16:05:32.626Z,11.90
2022-11-07T16:07:05.829Z,11.80
2022-11-07T16:08:40.259Z,11.70
2022-11-07T16:10:20.669Z,11.70
2022-11-07T16:11:53.690Z,11.60
2022-11-07T16:13:26.784Z,11.50
2022-11-07T16:15:00.259Z,11.40
2022-11-07T16:16:35.231Z,11.40
2022-11-07T16:18:17.269Z,11.30
2022-11-07T16:19:50.673Z,11.40
2022-11-07T16:21:25.197Z,11.30
2022-11-07T16:22:58.273Z,11.40
2022-11-07T16:24:31.296Z,11.40
2022-11-07T16:26:04.696Z,11.40
2022-11-07T16:27:37.993Z,11.30
2022-11-07T16:29:12.207Z,11.30
2022-11-07T16:30:45.253Z,11.20
2022-11-07T16:32:18.896Z,11.10
2022-11-07T16:33:53.295Z,11.10
2022-11-07T16:35:26.423Z,11.00
2022-11-07T16:37:00.899Z,11.00
2022-11-07T16:38:36.270Z,10.90
2022-11-07T16:40:13.878Z,10.90
2022-11-07T16:41:47.047Z,10.90
2022-11-07T16:43:20.529Z,10.90
2022-11-07T16:44:53.653Z,10.90
2022-11-07T16:46:28.924Z,10.90
2022-11-07T16:48:02.126Z,10.90
2022-11-07T16:49:35.191Z,11.00
2022-11-07T16:51:08.281Z,10.90
2022-11-07T16:52:42.867Z,10.90
2022-11-07T16:54:15.930Z,11.10
2022-11-07T16:55:53.735Z,11.10
2022-11-07T16:57:27.431Z,11.10
2022-11-07T16:59:00.817Z,11.00
2022-11-07T17:00:33.917Z,11.00
2022-11-07T17:02:21.072Z,10.90
2022-11-07T17:03:55.502Z,10.90
2022-11-07T17:05:28.573Z,10.90
2022-11-07T17:07:01.677Z,10.90
2022-11-07T17:08:39.362Z,10.90
2022-11-07T17:10:17.636Z,10.80
2022-11-07T17:11:50.710Z,10.80
2022-11-07T17:13:24.176Z,10.70
2022-11-07T17:14:57.285Z,10.70
2022-11-07T17:16:34.773Z,10.70
2022-11-07T17:18:11.802Z,10.70
2022-11-07T17:19:44.936Z,10.70
2022-11-07T17:21:24.276Z,10.70
2022-11-07T17:22:57.392Z,10.60
2022-11-07T17:24:32.172Z,10.50
2022-11-07T17:26:06.562Z,10.50
2022-11-07T17:27:41.011Z,10.40
2022-11-07T17:29:14.961Z,10.40
2022-11-07T17:30:48.219Z,10.40
2022-11-07T17:32:21.402Z,10.50
2022-11-07T17:33:54.524Z,10.60
2022-11-07T17:35:32.027Z,10.50
2022-11-07T17:37:05.854Z,10.50
2022-11-07T17:38:38.951Z,10.50
2022-11-07T17:40:19.580Z,10.60
2022-11-07T17:41:52.847Z,10.60
2022-11-07T17:43:25.946Z,10.50
2022-11-07T17:44:59.003Z,10.50
2022-11-07T17:46:34.250Z,10.50
2022-11-07T17:48:07.674Z,10.40
2022-11-07T17:49:40.716Z,10.30
2022-11-07T17:51:13.783Z,10.20
2022-11-07T17:52:47.248Z,10.10
2022-11-07T17:54:22.125Z,10.00
2022-11-07T17:55:59.869Z,9.90
2022-11-07T17:57:33.189Z,9.80
2022-11-07T17:59:08.890Z,9.60
2022-11-07T18:00:41.984Z,9.50
2022-11-07T18:02:16.627Z,9.40
2022-11-07T18:03:50.477Z,9.30
2022-11-07T18:05:30.129Z,9.30
2022-11-07T18:07:06.025Z,9.20
2022-11-07T18:08:51.608Z,9.00
2022-11-07T18:10:25.505Z,8.90
2022-11-07T18:12:00.112Z,8.90
2022-11-07T18:13:33.498Z,8.90
2022-11-07T18:15:07.639Z,8.80
2022-11-07T18:16:40.926Z,8.80
2022-11-07T18:18:14.315Z,8.80
2022-11-07T18:19:49.061Z,8.80
2022-11-07T18:21:22.219Z,8.80
2022-11-07T18:22:55.279Z,8.70
2022-11-07T18:24:28.467Z,8.50
2022-11-07T18:26:06.019Z,8.40
2022-11-07T18:27:40.465Z,8.30
2022-11-07T18:29:14.944Z,8.20
2022-11-07T18:30:48.341Z,8.10
2022-11-07T18:32:21.482Z,8.00
2022-11-07T18:33:57.635Z,7.80
2022-11-07T18:35:30.713Z,7.70
2022-11-07T18:37:03.788Z,7.60
2022-11-07T18:38:37.056Z,7.50
2022-11-07T18:40:11.783Z,7.50
2022-11-07T18:41:45.485Z,7.40
2022-11-07T18:43:19.948Z,7.40
2022-11-07T18:44:53.125Z,7.50
2022-11-07T18:46:26.361Z,7.40
2022-11-07T18:47:59.443Z,7.40
2022-11-07T18:49:32.887Z,7.50
2022-11-07T18:51:11.383Z,7.50
2022-11-07T18:52:44.456Z,7.60
2022-11-07T18:54:17.552Z,7.70
2022-11-07T18:55:57.787Z,7.90
2022-11-07T18:57:30.854Z,8.00
2022-11-07T18:59:05.395Z,8.10
2022-11-07T19:00:38.488Z,8.30
2022-11-07T19:02:11.643Z,8.30
2022-11-07T19:03:45.878Z,8.30
2022-11-07T19:05:19.177Z,8.30
2022-11-07T19:06:57.998Z,8.30
2022-11-07T19:08:32.311Z,8.20
2022-11-07T19:10:06.107Z,8.30
2022-11-07T19:11:39.174Z,8.30
2022-11-07T19:13:12.235Z,8.30
2022-11-07T19:14:46.620Z,8.20
2022-11-07T19:16:21.809Z,8.10
2022-11-07T19:17:54.902Z,8.00
2022-11-07T19:19:27.946Z,7.90
2022-11-07T19:21:01.644Z,7.80
2022-11-07T19:22:34.752Z,7.70
2022-11-07T19:24:08.615Z,7.60
2022-11-07T19:25:42.667Z,7.60
2022-11-07T19:27:15.746Z,7.60
2022-11-07T19:28:49.082Z,7.50
2022-11-07T19:30:24.633Z,7.40
2022-11-07T19:31:57.745Z,7.50
2022-11-07T19:33:30.795Z,7.40
2022-11-07T19:35:03.915Z,7.40
2022-11-07T19:36:37.347Z,7.30
2022-11-07T19:38:12.542Z,7.30
2022-11-07T19:39:45.880Z,7.40
2022-11-07T19:41:19.408Z,7.60
2022-11-07T19:42:53.079Z,7.60
2022-11-07T19:44:26.157Z,7.70
2022-11-07T19:46:01.204Z,7.80
2022-11-07T19:47:34.284Z,7.90
2022-11-07T19:49:07.420Z,8.00
2022-11-07T19:50:40.468Z,8.00
2022-11-07T19:52:13.719Z,8.10
2022-11-07T19:53:46.797Z,8.10
2022-11-07T19:55:20.118Z,8.10
2022-11-07T19:56:57.225Z,8.30
2022-11-07T19:58:30.772Z,8.70
2022-11-07T20:00:05.046Z,8.80
2022-11-07T20:01:40.399Z,9.00
2022-11-07T20:03:13.821Z,9.30
2022-11-07T20:04:47.494Z,9.30
2022-11-07T20:06:22.877Z,9.20
2022-11-07T20:08:00.712Z,9.20
2022-11-07T20:09:36.962Z,9.20
2022-11-07T20:11:10.398Z,9.30
2022-11-07T20:12:43.528Z,9.40
2022-11-07T20:14:16.597Z,9.40
2022-11-07T20:15:49.667Z,9.30
2022-11-07T20:17:24.126Z,9.30
2022-11-07T20:18:57.475Z,9.20
2022-11-07T20:20:30.579Z,9.10
2022-11-07T20:22:03.691Z,8.90
2022-11-07T20:23:37.058Z,9.00
2022-11-07T20:25:10.805Z,9.10
2022-11-07T20:26:45.774Z,9.20
2022-11-07T20:28:18.884Z,9.30
2022-11-07T20:29:56.369Z,9.40
2022-11-07T20:31:32.691Z,9.40
2022-11-07T20:33:07.128Z,9.50
2022-11-07T20:34:40.170Z,9.40
2022-11-07T20:36:15.139Z,9.30
2022-11-07T20:37:48.216Z,9.20
2022-11-07T20:39:21.270Z,9.00
2022-11-07T20:40:54.359Z,8.90
2022-11-07T20:42:27.416Z,8.70
2022-11-07T20:44:03.459Z,8.60
2022-11-07T20:45:37.279Z,8.50
2022-11-07T20:47:10.986Z,8.40
2022-11-07T20:48:46.239Z,8.10
2022-11-07T20:50:19.320Z,8.00
2022-11-07T20:51:53.414Z,7.90
2022-11-07T20:53:26.490Z,8.00
2022-11-07T20:54:59.920Z,7.80
2022-11-07T20:56:33.759Z,7.70
2022-11-07T20:58:06.947Z,7.60
2022-11-07T20:59:41.242Z,7.70
2022-11-07T21:01:16.378Z,7.70
2022-11-07T21:02:50.785Z,7.70
2022-11-07T21:04:25.510Z,7.80
2022-11-07T21:05:58.530Z,7.90
2022-11-07T21:07:31.685Z,7.90